Time;durP1;ratioP1;P1;durP2;ratioP2;P2;SDS_P1;SDS_P2;PMS_P1;PMS_P2;Temp;Humidity;BMP_temperature;BMP_pressure;BME280_temperature;BME280_humidity;BME280_pressure;Samples;Min_cycle;Max_cycle;Signal;HPM_P1;HPM_P2
2022/11/25 00:01:34;;;;;;;12.80;3.03;;;10.90;99.90;;;;;;5064443;28;20204;-90
2022/11/25 00:04:01;;;;;;;11.80;2.40;;;10.80;99.90;;;;;;5067077;28;20218;-94
2022/11/25 00:06:30;;;;;;;13.43;2.53;;;10.70;99.90;;;;;;5061623;28;20291;-95
2022/11/25 00:08:59;;;;;;;8.30;1.90;;;10.70;99.90;;;;;;5060320;28;20210;-94
2022/11/25 00:11:34;;;;;;;5.63;1.73;;;10.50;99.90;;;;;;5062780;28;20217;-95
2022/11/25 00:14:01;;;;;;;6.10;1.30;;;10.40;99.90;;;;;;5063060;28;20205;-94
2022/11/25 00:16:35;;;;;;;4.40;1.00;;;10.30;99.90;;;;;;5060213;28;20203;-95
2022/11/25 00:19:03;;;;;;;3.50;1.10;;;10.20;99.90;;;;;;5067227;28;20237;-95
2022/11/25 00:21:32;;;;;;;7.87;1.60;;;10.20;99.90;;;;;;5062929;28;20218;-95
2022/11/25 00:24:05;;;;;;;4.93;1.30;;;10.10;99.90;;;;;;5044180;28;20195;-96
2022/11/25 00:26:36;;;;;;;2.47;1.07;;;10.10;99.90;;;;;;5062023;28;20207;-95
2022/11/25 00:29:06;;;;;;;1.47;0.90;;;10.00;99.90;;;;;;5061551;28;20660;-93
2022/11/25 00:31:38;;;;;;;3.07;1.00;;;9.90;99.90;;;;;;5062981;28;20199;-95
2022/11/25 00:34:07;;;;;;;1.73;0.80;;;9.90;99.90;;;;;;5064083;28;20225;-95
2022/11/25 00:36:37;;;;;;;1.53;0.80;;;9.90;99.90;;;;;;5062161;28;20213;-94
2022/11/25 00:39:06;;;;;;;2.67;0.90;;;9.90;99.90;;;;;;5063542;28;20206;-94
2022/11/25 00:44:35;;;;;;;2.70;1.00;;;9.80;99.90;;;;;;5062576;28;20209;-92
2022/11/25 00:47:08;;;;;;;2.50;1.00;;;9.80;99.90;;;;;;5060845;28;20226;-93
2022/11/25 00:49:36;;;;;;;1.63;1.10;;;9.80;99.90;;;;;;5061506;28;20207;-93
2022/11/25 00:52:06;;;;;;;1.10;0.63;;;9.80;99.90;;;;;;5061119;28;20202;-94
2022/11/25 00:54:35;;;;;;;2.73;0.70;;;9.80;99.90;;;;;;5060525;28;20566;-94
2022/11/25 00:57:02;;;;;;;3.07;0.67;;;9.80;99.90;;;;;;5058918;28;20210;-94
2022/11/25 00:59:28;;;;;;;1.67;0.60;;;9.80;99.90;;;;;;5058802;28;20594;-94
2022/11/25 01:01:57;;;;;;;2.00;0.50;;;9.70;99.90;;;;;;5061488;28;20209;-94
2022/11/25 01:04:26;;;;;;;1.63;0.70;;;9.70;99.90;;;;;;5060626;28;20210;-93
2022/11/25 01:06:58;;;;;;;2.63;1.03;;;9.80;99.90;;;;;;5060193;28;20207;-92
2022/11/25 01:09:25;;;;;;;2.33;0.80;;;9.70;99.90;;;;;;5060765;28;20224;-94
2022/11/25 01:11:55;;;;;;;0.93;0.70;;;9.60;99.90;;;;;;5058183;28;20203;-94
2022/11/25 01:14:24;;;;;;;1.70;0.97;;;9.70;99.90;;;;;;5059579;28;20716;-93
2022/11/25 01:16:54;;;;;;;2.23;1.07;;;9.60;99.90;;;;;;5051573;28;20207;-92
2022/11/25 01:19:21;;;;;;;1.25;0.68;;;9.60;99.90;;;;;;5053648;28;20429;-92
2022/11/25 01:21:49;;;;;;;3.30;0.90;;;9.60;99.90;;;;;;5061343;28;20202;-94
2022/11/25 01:24:18;;;;;;;4.67;0.90;;;9.60;99.90;;;;;;5065035;28;20214;-94
2022/11/25 01:26:46;;;;;;;3.00;1.13;;;9.60;99.90;;;;;;5061040;28;20206;-91
2022/11/25 01:29:16;;;;;;;3.73;0.90;;;9.50;99.90;;;;;;5060287;28;20230;-93
2022/11/25 01:31:49;;;;;;;3.63;0.70;;;9.60;99.90;;;;;;5060264;28;20218;-92
2022/11/25 01:34:19;;;;;;;4.57;0.83;;;9.60;99.90;;;;;;5061359;28;20206;-93
2022/11/25 01:36:46;;;;;;;3.80;0.83;;;9.60;99.90;;;;;;5065150;28;20210;-92
2022/11/25 01:39:18;;;;;;;3.23;0.83;;;9.60;99.90;;;;;;5066996;28;20217;-95
2022/11/25 01:41:45;;;;;;;2.10;0.73;;;9.50;99.90;;;;;;5064018;28;20217;-94
2022/11/25 01:44:17;;;;;;;1.17;0.60;;;9.50;99.90;;;;;;5063841;28;20198;-94
2022/11/25 01:46:55;;;;;;;2.50;1.00;;;9.50;99.90;;;;;;5064520;28;20660;-95
2022/11/25 01:49:29;;;;;;;2.50;0.90;;;9.60;99.90;;;;;;5065313;28;20280;-94
2022/11/25 01:52:01;;;;;;;0.80;0.63;;;9.60;99.90;;;;;;5042695;28;20293;-93
2022/11/25 01:54:37;;;;;;;1.60;0.80;;;9.60;99.90;;;;;;5059345;28;20218;-94
2022/11/25 01:57:10;;;;;;;2.77;1.17;;;9.70;99.90;;;;;;5061402;28;20250;-95
2022/11/25 01:59:41;;;;;;;2.20;1.00;;;9.70;99.90;;;;;;5059288;28;20205;-94
2022/11/25 02:02:08;;;;;;;2.57;0.87;;;9.60;99.90;;;;;;5061806;28;20198;-95
2022/11/25 02:04:40;;;;;;;1.03;0.93;;;9.60;99.90;;;;;;5059565;28;20214;-96
2022/11/25 02:07:19;;;;;;;3.50;1.10;;;9.60;99.90;;;;;;5060831;28;20206;-94
2022/11/25 02:09:50;;;;;;;1.90;1.10;;;9.70;99.90;;;;;;5060290;28;20201;-95
2022/11/25 02:12:21;;;;;;;6.73;1.27;;;9.60;99.90;;;;;;5060929;28;20203;-95
2022/11/25 02:14:55;;;;;;;2.33;0.97;;;9.50;99.90;;;;;;5062855;28;20202;-94
2022/11/25 02:17:25;;;;;;;1.10;1.00;;;9.50;99.90;;;;;;5062155;28;20203;-94
2022/11/25 02:19:59;;;;;;;1.23;1.00;;;9.50;99.90;;;;;;5066710;28;20191;-95
2022/11/25 02:22:34;;;;;;;1.87;1.23;;;9.40;99.90;;;;;;5065481;28;20202;-92
2022/11/25 02:25:12;;;;;;;7.70;2.70;;;9.40;99.90;;;;;;5064033;28;20190;-93
2022/11/25 02:27:48;;;;;;;7.73;3.40;;;9.50;99.90;;;;;;5052100;28;20233;-93
2022/11/25 02:30:15;;;;;;;6.10;2.03;;;9.60;99.90;;;;;;5062634;28;20208;-95
2022/11/25 02:32:46;;;;;;;2.00;1.30;;;9.60;99.90;;;;;;5064006;28;20202;-95
2022/11/25 02:35:30;;;;;;;2.90;1.20;;;9.60;99.90;;;;;;5064195;28;20209;-91
2022/11/25 02:38:00;;;;;;;2.90;1.37;;;9.60;99.90;;;;;;5061619;28;20674;-91
2022/11/25 02:40:29;;;;;;;3.73;1.33;;;9.40;99.90;;;;;;5055572;28;20206;-94
2022/11/25 02:43:02;;;;;;;2.67;1.30;;;9.40;99.90;;;;;;5060576;28;20228;-93
2022/11/25 02:45:39;;;;;;;4.10;1.10;;;9.40;99.90;;;;;;5059047;28;20202;-95
2022/11/25 02:48:06;;;;;;;5.20;1.30;;;9.40;99.90;;;;;;5061116;28;20218;-93
2022/11/25 02:50:36;;;;;;;2.93;1.23;;;9.30;99.90;;;;;;5064020;28;20226;-95
2022/11/25 02:53:03;;;;;;;4.70;1.07;;;9.40;99.90;;;;;;5043223;28;20230;-94
2022/11/25 02:55:31;;;;;;;1.63;1.10;;;9.20;99.90;;;;;;5068652;28;20194;-95
2022/11/25 02:58:04;;;;;;;5.90;1.50;;;9.20;99.90;;;;;;5065391;28;20301;-95
2022/11/25 03:00:33;;;;;;;6.63;1.33;;;9.10;99.90;;;;;;5048055;28;20214;-94
2022/11/25 03:03:00;;;;;;;4.17;1.30;;;9.10;99.90;;;;;;5064452;28;20213;-95
2022/11/25 03:05:28;;;;;;;4.00;1.57;;;9.20;99.90;;;;;;5063825;28;20289;-94
2022/11/25 03:08:01;;;;;;;5.60;1.73;;;9.10;99.90;;;;;;5062445;28;20214;-95
2022/11/25 03:10:32;;;;;;;7.17;1.63;;;9.20;99.90;;;;;;5061189;28;20210;-96
2022/11/25 03:12:59;;;;;;;5.47;1.43;;;9.20;99.90;;;;;;5060427;28;20210;-96
2022/11/25 03:15:31;;;;;;;5.70;1.50;;;9.30;99.90;;;;;;5059629;28;20206;-95
2022/11/25 03:17:59;;;;;;;6.93;2.30;;;9.30;99.90;;;;;;5058254;28;20207;-95
2022/11/25 03:20:26;;;;;;;5.67;1.90;;;9.30;99.90;;;;;;5052488;28;20207;-93
2022/11/25 03:22:53;;;;;;;4.80;1.57;;;9.40;99.90;;;;;;5053177;28;20198;-93
2022/11/25 03:25:20;;;;;;;8.40;2.27;;;9.30;99.90;;;;;;5046516;28;20215;-95
2022/11/25 03:27:50;;;;;;;8.57;2.00;;;9.20;99.90;;;;;;5064405;28;20205;-96
2022/11/25 03:30:19;;;;;;;4.93;1.70;;;9.10;99.90;;;;;;5070088;28;20199;-95
2022/11/25 03:32:50;;;;;;;5.03;1.83;;;9.20;99.90;;;;;;5059587;28;20213;-95
2022/11/25 03:35:23;;;;;;;5.80;1.83;;;9.10;99.90;;;;;;5062754;28;20214;-95
2022/11/25 03:37:59;;;;;;;9.20;2.07;;;9.10;99.90;;;;;;5060584;28;20207;-96
2022/11/25 03:40:31;;;;;;;8.37;2.43;;;9.20;99.90;;;;;;5061109;28;20212;-95
2022/11/25 03:42:59;;;;;;;8.27;2.03;;;9.30;99.90;;;;;;5062888;28;20589;-94
2022/11/25 03:45:27;;;;;;;10.13;2.20;;;9.30;99.90;;;;;;5061997;28;20202;-94
2022/11/25 03:47:54;;;;;;;7.00;1.97;;;9.20;99.90;;;;;;5060270;28;20206;-94
2022/11/25 03:50:21;;;;;;;6.33;2.80;;;9.20;99.90;;;;;;5061270;28;20215;-94
2022/11/25 03:52:49;;;;;;;7.77;2.40;;;9.40;99.90;;;;;;5060285;28;20227;-93
2022/11/25 03:55:16;;;;;;;7.63;2.47;;;9.30;99.90;;;;;;5057737;28;20289;-95
2022/11/25 03:57:43;;;;;;;11.40;2.70;;;9.30;99.90;;;;;;5056444;28;20213;-93
2022/11/25 04:00:13;;;;;;;10.40;2.43;;;9.30;99.90;;;;;;5056521;28;20649;-95
2022/11/25 04:02:39;;;;;;;7.60;2.20;;;9.30;99.90;;;;;;5057557;28;20237;-95
2022/11/25 04:05:07;;;;;;;11.97;2.70;;;9.40;99.90;;;;;;5055942;28;20649;-94
2022/11/25 04:07:34;;;;;;;5.40;2.33;;;9.50;99.90;;;;;;5058266;28;20680;-94
2022/11/25 04:10:03;;;;;;;9.60;2.53;;;9.50;99.90;;;;;;5058255;28;20244;-96
2022/11/25 04:12:48;;;;;;;9.90;2.60;;;9.40;99.90;;;;;;5057389;28;20234;-95
2022/11/25 04:15:16;;;;;;;12.27;2.63;;;9.40;99.90;;;;;;5056385;28;20661;-94
2022/11/25 04:17:46;;;;;;;8.03;2.60;;;9.40;99.90;;;;;;5056595;28;20278;-95
2022/11/25 04:20:15;;;;;;;9.00;2.93;;;9.30;99.90;;;;;;5057091;28;20194;-94
2022/11/25 04:22:42;;;;;;;10.53;2.47;;;9.30;99.90;;;;;;5056916;28;20210;-93
2022/11/25 04:25:11;;;;;;;13.30;2.40;;;9.40;99.90;;;;;;5057299;28;20195;-95
2022/11/25 04:27:37;;;;;;;13.27;2.57;;;9.40;99.90;;;;;;5057537;28;20206;-95
2022/11/25 04:30:11;;;;;;;9.20;2.53;;;9.40;99.90;;;;;;5058116;28;20256;-95
2022/11/25 04:32:39;;;;;;;13.47;3.80;;;9.40;99.90;;;;;;5057516;28;20211;-91
2022/11/25 04:35:08;;;;;;;7.97;2.83;;;9.40;99.90;;;;;;5056916;28;20210;-95
2022/11/25 04:37:36;;;;;;;7.20;2.50;;;9.40;99.90;;;;;;5055787;28;20203;-92
2022/11/25 04:40:04;;;;;;;9.67;2.57;;;9.40;99.90;;;;;;5055948;28;20210;-93
2022/11/25 04:42:31;;;;;;;7.03;2.63;;;9.40;99.90;;;;;;5056030;28;20217;-94
2022/11/25 04:44:59;;;;;;;9.30;2.77;;;9.50;99.90;;;;;;5056424;28;20563;-95
2022/11/25 04:47:28;;;;;;;9.00;2.43;;;9.50;99.90;;;;;;5056414;28;20213;-94
2022/11/25 04:49:56;;;;;;;11.00;3.00;;;9.50;99.90;;;;;;5063115;28;20218;-92
2022/11/25 04:52:23;;;;;;;10.67;3.00;;;9.50;99.90;;;;;;5056195;28;20238;-91
2022/11/25 04:54:51;;;;;;;9.90;2.60;;;9.40;99.90;;;;;;5055447;28;20662;-92
2022/11/25 04:57:19;;;;;;;9.73;2.73;;;9.40;99.90;;;;;;5038301;28;20198;-94
2022/11/25 04:59:46;;;;;;;9.13;2.50;;;9.30;99.90;;;;;;5054842;28;20210;-94
2022/11/25 05:02:15;;;;;;;13.10;2.60;;;9.40;99.90;;;;;;5055050;28;20211;-93
2022/11/25 05:04:42;;;;;;;8.73;2.50;;;9.40;99.90;;;;;;5054486;28;20213;-94
2022/11/25 05:07:13;;;;;;;10.90;2.63;;;9.30;99.90;;;;;;5055230;28;20209;-95
2022/11/25 05:09:40;;;;;;;8.53;2.70;;;9.20;99.90;;;;;;5054920;28;20226;-90
2022/11/25 05:12:10;;;;;;;7.27;2.57;;;9.40;99.90;;;;;;5055013;28;20221;-92
2022/11/25 05:14:43;;;;;;;5.97;2.60;;;9.20;99.90;;;;;;5055428;28;20629;-93
2022/11/25 05:17:14;;;;;;;12.03;2.53;;;9.20;99.90;;;;;;5053359;28;20206;-94
2022/11/25 05:19:44;;;;;;;7.47;2.10;;;9.10;99.90;;;;;;5054060;28;20198;-94
2022/11/25 05:22:16;;;;;;;11.40;2.57;;;9.10;99.90;;;;;;5054707;28;20205;-94
2022/11/25 05:24:44;;;;;;;8.80;1.93;;;9.10;99.90;;;;;;5055281;28;20205;-93
2022/11/25 05:27:11;;;;;;;8.27;2.90;;;9.00;99.90;;;;;;5055151;28;20205;-94
2022/11/25 05:29:38;;;;;;;11.80;2.30;;;9.00;99.90;;;;;;5054382;28;20232;-95
2022/11/25 05:32:07;;;;;;;8.63;2.77;;;9.10;99.90;;;;;;5054842;28;20206;-95
2022/11/25 05:34:35;;;;;;;9.37;2.20;;;9.00;99.90;;;;;;5054838;28;20206;-94
2022/11/25 05:37:03;;;;;;;10.13;2.50;;;9.10;99.90;;;;;;5054953;28;20212;-93
2022/11/25 05:39:31;;;;;;;6.37;2.50;;;9.00;99.90;;;;;;5054646;28;20202;-96
2022/11/25 05:41:59;;;;;;;10.87;2.20;;;9.00;99.90;;;;;;5053626;28;20206;-95
2022/11/25 05:44:27;;;;;;;9.70;2.63;;;9.00;99.90;;;;;;5054889;28;20212;-94
2022/11/25 05:46:56;;;;;;;4.83;1.90;;;8.90;99.90;;;;;;5054742;28;20195;-92
2022/11/25 05:49:24;;;;;;;9.57;2.33;;;8.90;99.90;;;;;;5054689;28;20246;-93
2022/11/25 05:51:51;;;;;;;8.27;2.57;;;8.80;99.90;;;;;;5054844;28;20211;-95
2022/11/25 05:54:18;;;;;;;9.60;2.70;;;8.80;99.90;;;;;;5054571;28;20227;-96
2022/11/25 05:56:48;;;;;;;7.93;2.10;;;8.80;99.90;;;;;;5054782;28;20213;-94
2022/11/25 05:59:20;;;;;;;8.13;2.40;;;8.90;99.90;;;;;;5054556;28;20202;-92
2022/11/25 06:01:47;;;;;;;9.77;2.80;;;8.90;99.90;;;;;;5054223;28;20199;-93
2022/11/25 06:04:16;;;;;;;5.53;2.10;;;8.80;99.90;;;;;;5055010;28;20554;-93
2022/11/25 06:06:44;;;;;;;10.83;2.37;;;8.80;99.90;;;;;;5054038;28;20195;-95
2022/11/25 06:09:11;;;;;;;4.30;2.00;;;8.70;99.90;;;;;;5054278;28;20232;-94
2022/11/25 06:11:38;;;;;;;9.20;2.73;;;8.70;99.90;;;;;;5036034;28;20577;-94
2022/11/25 06:14:09;;;;;;;7.90;3.17;;;8.70;99.90;;;;;;5054604;28;20570;-96
2022/11/25 06:16:36;;;;;;;7.97;3.20;;;8.70;99.90;;;;;;5053495;28;20206;-91
2022/11/25 06:19:05;;;;;;;9.70;2.60;;;8.60;99.90;;;;;;5053463;28;20209;-94
2022/11/25 06:21:32;;;;;;;6.67;2.60;;;8.60;99.90;;;;;;5053187;28;20217;-93
2022/11/25 06:23:59;;;;;;;13.17;2.77;;;8.60;99.90;;;;;;5051199;28;20206;-94
2022/11/25 06:26:25;;;;;;;9.37;2.63;;;8.60;99.90;;;;;;5046824;28;20202;-94
2022/11/25 06:28:54;;;;;;;7.87;2.67;;;8.50;99.90;;;;;;5054198;28;20296;-92
2022/11/25 06:31:26;;;;;;;8.80;2.73;;;8.60;99.90;;;;;;5052686;28;20210;-95
2022/11/25 06:33:53;;;;;;;5.67;3.27;;;8.40;99.90;;;;;;5060398;28;20202;-95
2022/11/25 06:36:21;;;;;;;10.70;2.77;;;8.50;99.90;;;;;;5053953;28;20210;-93
2022/11/25 06:38:50;;;;;;;7.17;2.70;;;8.40;99.90;;;;;;5052913;28;20202;-94
2022/11/25 06:41:18;;;;;;;11.23;3.00;;;8.40;99.90;;;;;;5053828;28;20202;-94
2022/11/25 06:43:45;;;;;;;9.43;2.57;;;8.40;99.90;;;;;;5054563;28;20210;-93
2022/11/25 06:46:17;;;;;;;10.43;3.07;;;8.40;99.90;;;;;;5054614;28;20209;-94
2022/11/25 06:48:51;;;;;;;7.80;2.57;;;8.30;99.90;;;;;;5054374;28;20207;-93
2022/11/25 06:51:18;;;;;;;10.30;2.93;;;8.30;99.90;;;;;;5054017;28;20211;-94
2022/11/25 06:53:46;;;;;;;13.93;3.30;;;8.40;99.90;;;;;;5053962;28;20222;-95
2022/11/25 06:56:15;;;;;;;10.30;3.53;;;8.40;99.90;;;;;;5053473;28;20208;-93
2022/11/25 06:58:43;;;;;;;9.00;3.40;;;8.50;99.90;;;;;;5052984;28;20206;-93
2022/11/25 07:01:14;;;;;;;18.03;4.00;;;8.50;99.90;;;;;;5054231;28;20297;-92
2022/11/25 07:03:42;;;;;;;17.30;4.83;;;8.40;99.90;;;;;;5054468;28;20209;-92
2022/11/25 07:06:13;;;;;;;10.30;3.60;;;8.50;99.90;;;;;;5053553;28;20214;-94
2022/11/25 07:08:40;;;;;;;9.90;3.57;;;8.50;99.90;;;;;;5055198;28;20212;-93
2022/11/25 07:11:10;;;;;;;10.73;3.77;;;8.40;99.90;;;;;;5061010;28;20603;-92
2022/11/25 07:13:37;;;;;;;11.90;3.30;;;8.40;99.90;;;;;;5056508;28;20198;-96
2022/11/25 07:16:04;;;;;;;12.85;4.20;;;8.40;99.90;;;;;;5064194;28;20920;-94
2022/11/25 07:18:32;;;;;;;11.37;3.70;;;8.30;99.90;;;;;;5063632;28;20213;-94
2022/11/25 07:21:05;;;;;;;12.30;4.13;;;8.30;99.90;;;;;;5064731;28;20566;-92
2022/11/25 07:23:35;;;;;;;9.67;3.73;;;8.30;99.90;;;;;;5054034;28;20255;-94
2022/11/25 07:26:05;;;;;;;17.87;4.70;;;8.40;99.90;;;;;;5053309;28;20217;-94
2022/11/25 07:28:32;;;;;;;11.47;3.83;;;8.50;99.90;;;;;;5053404;28;20210;-95
2022/11/25 07:31:06;;;;;;;9.43;3.53;;;8.40;99.90;;;;;;5056018;28;20228;-92
2022/11/25 07:33:33;;;;;;;13.40;4.03;;;8.40;99.90;;;;;;5065280;28;20289;-92
2022/11/25 07:36:02;;;;;;;17.73;4.50;;;8.40;99.90;;;;;;5060386;28;20713;-93
2022/11/25 07:38:29;;;;;;;17.93;4.33;;;8.40;99.90;;;;;;5060886;28;20654;-96
2022/11/25 07:41:04;;;;;;;12.27;3.70;;;8.40;99.90;;;;;;5064445;28;20205;-94
2022/11/25 07:43:31;;;;;;;18.80;4.83;;;8.40;99.90;;;;;;5064387;28;20233;-95
2022/11/25 07:46:07;;;;;;;16.75;5.22;;;8.30;99.90;;;;;;5055521;28;20429;-94
2022/11/25 07:48:34;;;;;;;17.60;5.07;;;8.40;99.90;;;;;;5057442;28;20221;-93
2022/11/25 07:51:01;;;;;;;13.20;4.27;;;8.40;99.90;;;;;;5055920;28;20240;-94
2022/11/25 07:53:27;;;;;;;11.93;4.07;;;8.40;99.90;;;;;;5055245;28;20228;-95
2022/11/25 07:55:54;;;;;;;12.50;4.07;;;8.50;99.90;;;;;;5055730;28;20201;-94
2022/11/25 07:58:22;;;;;;;15.30;3.93;;;8.60;99.90;;;;;;5056602;28;20282;-96
2022/11/25 08:00:49;;;;;;;18.67;5.13;;;8.70;99.90;;;;;;5061942;28;20199;-93
2022/11/25 08:03:16;;;;;;;5.43;3.60;;;8.70;99.90;;;;;;5056859;28;20336;-95
2022/11/25 08:05:43;;;;;;;12.33;4.13;;;8.80;99.90;;;;;;5065517;28;20202;-94
2022/11/25 08:08:10;;;;;;;17.43;4.20;;;8.80;99.90;;;;;;5064725;28;20210;-95
2022/11/25 08:10:40;;;;;;;11.77;3.80;;;8.80;99.90;;;;;;5056919;28;20226;-94
2022/11/25 08:13:06;;;;;;;14.53;4.37;;;8.80;99.90;;;;;;5065158;28;20209;-94
2022/11/25 08:15:34;;;;;;;13.80;3.97;;;8.80;99.90;;;;;;5056085;28;20789;-95
2022/11/25 08:18:01;;;;;;;14.53;4.30;;;8.80;99.90;;;;;;5065765;28;20454;-95
2022/11/25 08:20:30;;;;;;;18.67;4.17;;;9.00;99.90;;;;;;5065299;28;20213;-94
2022/11/25 08:22:57;;;;;;;15.20;4.30;;;8.90;99.90;;;;;;5061591;28;20657;-95
2022/11/25 08:25:23;;;;;;;15.50;4.83;;;8.90;99.90;;;;;;5064418;28;20209;-95
2022/11/25 08:27:50;;;;;;;13.87;4.03;;;8.90;99.90;;;;;;5064326;28;20648;-94
2022/11/25 08:30:20;;;;;;;11.20;3.83;;;8.90;99.90;;;;;;5061178;28;20222;-94
2022/11/25 08:32:49;;;;;;;14.90;4.30;;;8.90;99.90;;;;;;5055443;28;20199;-93
2022/11/25 08:35:16;;;;;;;18.93;4.33;;;8.80;99.90;;;;;;5055606;28;20570;-94
2022/11/25 08:37:43;;;;;;;9.13;3.83;;;8.80;99.90;;;;;;5042338;28;20589;-94
2022/11/25 08:40:10;;;;;;;12.40;4.23;;;8.80;99.90;;;;;;5069622;28;20589;-92
2022/11/25 08:42:38;;;;;;;10.33;3.60;;;8.80;99.90;;;;;;5058872;28;20197;-96
2022/11/25 08:45:08;;;;;;;15.33;4.10;;;8.70;99.90;;;;;;5069076;28;20205;-95
2022/11/25 08:47:35;;;;;;;15.43;3.70;;;8.70;99.90;;;;;;5063521;28;20241;-94
2022/11/25 08:50:06;;;;;;;12.77;4.00;;;8.70;99.90;;;;;;5054578;28;20226;-93
2022/11/25 08:52:33;;;;;;;11.70;3.93;;;8.70;99.90;;;;;;5041910;28;20225;-92
2022/11/25 08:55:03;;;;;;;8.37;3.80;;;8.70;99.90;;;;;;5056643;28;20202;-92
2022/11/25 08:57:30;;;;;;;16.40;4.13;;;8.70;99.90;;;;;;5056818;28;20289;-90
2022/11/25 08:59:57;;;;;;;11.63;3.50;;;8.70;99.90;;;;;;5054196;28;20209;-90
2022/11/25 09:02:24;;;;;;;10.83;3.87;;;8.70;99.90;;;;;;5054046;28;20194;-90
2022/11/25 09:04:51;;;;;;;9.80;3.37;;;8.80;99.90;;;;;;5054475;28;20646;-90
2022/11/25 09:07:19;;;;;;;10.10;3.23;;;8.80;99.90;;;;;;5054648;28;20236;-90
2022/11/25 09:09:46;;;;;;;15.93;4.80;;;8.80;99.90;;;;;;5054064;28;20234;-89
2022/11/25 09:12:13;;;;;;;13.73;4.00;;;8.80;99.90;;;;;;5053337;28;20206;-90
2022/11/25 09:14:40;;;;;;;11.20;3.47;;;8.80;99.90;;;;;;5054331;28;20210;-91
2022/11/25 09:17:10;;;;;;;17.25;5.03;;;8.90;99.90;;;;;;5053243;28;20437;-90
2022/11/25 09:19:36;;;;;;;14.53;4.43;;;9.00;99.90;;;;;;5055795;28;20237;-90
2022/11/25 09:22:03;;;;;;;12.20;3.60;;;9.00;99.90;;;;;;5062548;28;20209;-90
2022/11/25 09:24:32;;;;;;;13.40;3.97;;;9.10;99.90;;;;;;5059575;28;20210;-90
2022/11/25 09:26:58;;;;;;;17.87;4.93;;;9.10;99.90;;;;;;5056805;28;20191;-90
2022/11/25 09:29:26;;;;;;;10.93;3.07;;;9.10;99.90;;;;;;5062145;28;20203;-93
2022/11/25 09:31:53;;;;;;;11.63;3.60;;;9.00;99.90;;;;;;5060724;28;20211;-90
2022/11/25 09:34:20;;;;;;;17.27;3.83;;;9.00;99.90;;;;;;5061176;28;20280;-91
2022/11/25 09:36:53;;;;;;;15.10;3.90;;;9.10;99.90;;;;;;5057048;28;20565;-94
2022/11/25 09:39:20;;;;;;;12.23;4.20;;;9.10;99.90;;;;;;5059294;28;20202;-91
2022/11/25 09:48:00;;;;;;;13.87;3.90;;;9.30;99.90;;;;;;5069179;28;20197;-92
2022/11/25 09:50:50;;;;;;;13.20;3.57;;;9.40;99.90;;;;;;5066059;28;20242;-94
2022/11/25 09:53:24;;;;;;;11.57;3.90;;;9.40;99.90;;;;;;5065844;28;20222;-93
2022/11/25 09:55:57;;;;;;;12.53;3.93;;;9.40;99.90;;;;;;5066092;28;20200;-92
2022/11/25 09:58:32;;;;;;;14.10;4.33;;;9.50;99.90;;;;;;5065589;28;20208;-92
2022/11/25 10:01:04;;;;;;;12.57;4.50;;;9.50;99.90;;;;;;5066475;28;20205;-91
2022/11/25 10:03:37;;;;;;;11.70;4.20;;;9.50;99.90;;;;;;5056955;28;20204;-91
2022/11/25 10:06:09;;;;;;;15.47;4.90;;;9.60;99.90;;;;;;5055154;28;20592;-93
2022/11/25 10:08:39;;;;;;;12.80;4.43;;;9.70;99.90;;;;;;5054595;28;20209;-91
2022/11/25 10:11:17;;;;;;;13.33;4.03;;;9.70;99.90;;;;;;5054449;28;20226;-91
2022/11/25 10:13:52;;;;;;;12.97;4.70;;;9.70;99.90;;;;;;5054740;28;20198;-91
2022/11/25 10:16:31;;;;;;;12.90;3.90;;;9.80;99.90;;;;;;5054453;28;20197;-93
2022/11/25 10:19:01;;;;;;;13.37;4.50;;;9.80;99.90;;;;;;5054119;28;20256;-89
2022/11/25 10:21:28;;;;;;;12.63;4.40;;;9.80;99.90;;;;;;5054023;28;20302;-92
2022/11/25 10:23:55;;;;;;;12.63;4.57;;;9.80;99.90;;;;;;5054121;28;20202;-92
2022/11/25 10:26:27;;;;;;;12.87;4.33;;;9.80;99.90;;;;;;5054077;28;20203;-92
2022/11/25 10:29:26;;;;;;;15.17;4.73;;;9.80;99.90;;;;;;5054392;28;20198;-92
2022/11/25 10:32:02;;;;;;;14.10;4.30;;;9.90;99.90;;;;;;5054039;28;20222;-92
2022/11/25 10:34:36;;;;;;;17.30;4.97;;;9.90;99.90;;;;;;5054234;28;20213;-92
2022/11/25 10:37:11;;;;;;;14.10;4.50;;;10.10;99.90;;;;;;5054130;28;20606;-92
2022/11/25 10:39:38;;;;;;;11.93;4.30;;;10.00;99.90;;;;;;5054389;28;20209;-92
2022/11/25 10:42:08;;;;;;;11.30;4.30;;;10.00;99.90;;;;;;5053736;28;20207;-92
2022/11/25 10:44:38;;;;;;;12.70;4.37;;;10.00;99.90;;;;;;5054330;28;20195;-92
2022/11/25 10:47:22;;;;;;;11.17;3.50;;;10.00;99.90;;;;;;5053798;28;20213;-92
2022/11/25 10:50:05;;;;;;;16.30;4.27;;;10.10;99.90;;;;;;5051439;28;20209;-92
2022/11/25 10:52:36;;;;;;;16.20;3.97;;;10.10;99.90;;;;;;5051922;28;20732;-88
2022/11/25 10:55:10;;;;;;;13.23;3.90;;;10.20;99.90;;;;;;5052377;28;20636;-90
2022/11/25 10:57:37;;;;;;;15.23;4.53;;;10.20;99.90;;;;;;5051902;28;20206;-88
2022/11/25 11:00:23;;;;;;;11.57;4.03;;;10.20;99.90;;;;;;5052385;28;20218;-88
2022/11/25 11:02:50;;;;;;;16.50;3.97;;;10.30;99.90;;;;;;5051974;28;20211;-90
2022/11/25 11:05:22;;;;;;;11.63;3.40;;;10.40;99.90;;;;;;5052317;28;20681;-86
2022/11/25 11:08:08;;;;;;;16.37;3.80;;;10.40;99.90;;;;;;5052907;28;20199;-88
2022/11/25 11:10:35;;;;;;;9.20;3.10;;;10.50;99.90;;;;;;5052867;28;20317;-88
2022/11/25 11:13:04;;;;;;;8.80;3.20;;;10.70;99.90;;;;;;5052835;28;20210;-88
2022/11/25 11:15:33;;;;;;;13.33;3.53;;;10.60;99.90;;;;;;5055911;28;20203;-87
2022/11/25 11:18:14;;;;;;;12.10;3.10;;;10.70;99.90;;;;;;5056231;28;20200;-89
2022/11/25 11:20:45;;;;;;;9.87;3.27;;;10.80;99.90;;;;;;5056640;28;20199;-86
2022/11/25 11:23:14;;;;;;;10.30;2.80;;;10.80;99.90;;;;;;5056681;28;20192;-87
2022/11/25 11:25:43;;;;;;;13.20;3.50;;;10.80;99.90;;;;;;5056748;28;20195;-90
2022/11/25 11:28:26;;;;;;;12.37;3.30;;;10.90;99.90;;;;;;5056105;28;20214;-90
2022/11/25 11:30:58;;;;;;;9.90;3.07;;;10.90;99.90;;;;;;5055129;28;20239;-90
2022/11/25 11:33:35;;;;;;;12.73;4.10;;;11.00;99.90;;;;;;5056614;28;20224;-91
2022/11/25 11:36:20;;;;;;;8.70;3.13;;;11.10;99.90;;;;;;5042886;28;20207;-89
2022/11/25 11:38:54;;;;;;;8.87;3.03;;;11.10;99.90;;;;;;5056586;28;20669;-90
2022/11/25 11:41:34;;;;;;;13.97;3.40;;;11.20;99.90;;;;;;5057517;28;20607;-91
2022/11/25 11:44:09;;;;;;;10.70;3.73;;;11.20;99.90;;;;;;5057050;28;20206;-91
2022/11/25 11:46:52;;;;;;;16.92;5.38;;;11.30;99.90;;;;;;5056421;28;20425;-91
2022/11/25 11:49:43;;;;;;;14.30;4.53;;;11.40;99.90;;;;;;5060523;28;20204;-88
2022/11/25 11:52:23;;;;;;;11.33;3.97;;;11.40;99.90;;;;;;5056537;28;20236;-86
2022/11/25 11:55:02;;;;;;;9.10;3.73;;;11.50;99.90;;;;;;5059921;28;20199;-84
2022/11/25 11:57:44;;;;;;;12.20;4.57;;;11.50;99.90;;;;;;5055190;28;20213;-87
2022/11/25 12:00:15;;;;;;;11.90;3.63;;;11.50;99.90;;;;;;5051963;28;20213;-86
2022/11/25 12:03:00;;;;;;;11.37;3.87;;;11.60;99.90;;;;;;5042394;28;20212;-91
2022/11/25 12:05:29;;;;;;;12.60;3.33;;;11.60;99.90;;;;;;5056197;28;20216;-87
2022/11/25 12:08:09;;;;;;;12.13;3.20;;;11.70;99.90;;;;;;5050328;28;20205;-87
2022/11/25 12:10:40;;;;;;;6.53;2.67;;;11.70;99.90;;;;;;5055728;28;20228;-90
2022/11/25 12:13:15;;;;;;;11.13;3.20;;;11.70;99.90;;;;;;5047604;28;20690;-88
2022/11/25 12:15:49;;;;;;;8.33;2.80;;;11.70;99.90;;;;;;5045984;28;20208;-88
2022/11/25 12:18:28;;;;;;;14.63;3.43;;;11.70;99.90;;;;;;5054951;28;20687;-88
2022/11/25 12:21:01;;;;;;;13.20;2.80;;;11.70;99.90;;;;;;5055559;28;20222;-89
2022/11/25 12:23:39;;;;;;;9.40;3.53;;;11.70;99.90;;;;;;5056090;28;20216;-87
2022/11/25 12:26:11;;;;;;;15.67;3.93;;;11.70;99.90;;;;;;5055039;28;20202;-86
2022/11/25 12:28:43;;;;;;;11.60;3.50;;;11.80;99.90;;;;;;5054074;28;20239;-84
2022/11/25 12:31:15;;;;;;;9.43;2.83;;;11.80;99.90;;;;;;5054584;28;20221;-87
2022/11/25 12:33:52;;;;;;;11.47;3.23;;;11.90;99.90;;;;;;5055012;28;20560;-84
2022/11/25 12:36:28;;;;;;;8.13;2.80;;;11.90;99.90;;;;;;5055784;28;20212;-87
2022/11/25 12:39:00;;;;;;;10.50;2.77;;;11.90;99.90;;;;;;5055088;28;20206;-87
2022/11/25 12:41:34;;;;;;;9.50;2.57;;;11.80;99.90;;;;;;5059617;28;20281;-86
2022/11/25 12:44:08;;;;;;;9.40;3.33;;;11.70;99.90;;;;;;5046078;28;20208;-88
2022/11/25 12:46:44;;;;;;;15.27;3.53;;;11.80;99.90;;;;;;5054409;28;20210;-87
2022/11/25 12:49:17;;;;;;;10.20;2.83;;;11.80;99.90;;;;;;5055354;28;20205;-88
2022/11/25 12:52:09;;;;;;;13.90;3.70;;;11.70;99.90;;;;;;5054847;28;20233;-85
2022/11/25 12:55:09;;;;;;;12.60;3.97;;;11.90;99.90;;;;;;5054530;28;20201;-87
2022/11/25 12:58:02;;;;;;;11.10;4.37;;;11.90;99.90;;;;;;5052408;28;20712;-87
2022/11/25 13:00:40;;;;;;;20.00;4.20;;;12.00;99.90;;;;;;5040530;28;20560;-80
2022/11/25 13:03:50;;;;;;;10.40;3.13;;;12.00;99.90;;;;;;5053770;28;20216;-83
2022/11/25 13:06:33;;;;;;;15.90;3.27;;;12.00;99.90;;;;;;4989436;28;20219;-83
2022/11/25 13:09:10;;;;;;;16.13;3.60;;;11.90;99.90;;;;;;5052075;28;20213;-84
2022/11/25 13:12:07;;;;;;;9.50;3.00;;;11.90;99.90;;;;;;5052588;28;20236;-84
2022/11/25 13:14:56;;;;;;;11.03;2.73;;;12.00;99.90;;;;;;5053189;28;20546;-84
2022/11/25 13:17:23;;;;;;;15.17;3.50;;;12.00;99.90;;;;;;5053009;28;20577;-84
2022/11/25 13:20:10;;;;;;;10.10;3.33;;;12.10;99.90;;;;;;5054197;28;20205;-85